Main page
METAR-TAF:

METAR-TAF

Airports :

Tak Airport

Tak, Thailand

latitude: 16-53N, longitude: 099-09E, elevation: 121 m

Current weather observation

The report was made 12 minutes ago, at 23:00 UTC
Temperature 24°C
Humidity 74%
Pressure 1011 hPa
Visibility: 7000 m
Few clouds at a height of 2800 ft

METAR: VTPT 232300Z /////KT 7000 FEW028 24/19 Q1011 NOSIG

Time: 06:12 (23:12 UTC)

Forecast

The report was made 6 hours and 12 minutes ago, at 17:00 UTC
Forecast valid from 23 at 18 UTC to 24 at 18 UTC
Wind 5 kt from the North/Northwest
Visibility 10 km or more
Few clouds at a height of 2600 ft
Becoming
from 24 at 02 UTC to 24 at 04 UTC
Wind 5 kt from the South

TAF: VTPT 231700Z 2318/2418 34005KT 9999 FEW026 BECMG 2402/2404 18005KT

Weather observations and forecasts of more than 4000 airports (METAR and TAF reports).

The available stations are represented by yellow and red dots on the map.

Hover mouse over dot to see the name of the station.

Then click to see weather observations and forecasts.

To change the map : click on the green buttons with a black cross to zoom in, on the green button with a dash to zoom out, or on the green arrows for adjacent maps.


METAR-TAF: